sensor_id;sensor_type;location;lat;lon;timestamp;P1;durP1;ratioP1;P2;durP2;ratioP2
30862;SDS011;17573;55.922;37.540;2022-07-24T00:01:36;16.60;;;11.63;;
30862;SDS011;17573;55.922;37.540;2022-07-24T00:04:29;16.52;;;11.77;;
30862;SDS011;17573;55.922;37.540;2022-07-24T00:07:01;21.83;;;11.15;;
30862;SDS011;17573;55.922;37.540;2022-07-24T00:09:55;14.73;;;11.30;;
30862;SDS011;17573;55.922;37.540;2022-07-24T00:12:29;19.73;;;11.38;;
30862;SDS011;17573;55.922;37.540;2022-07-24T00:15:22;19.73;;;10.93;;
30862;SDS011;17573;55.922;37.540;2022-07-24T00:17:54;24.73;;;11.13;;
30862;SDS011;17573;55.922;37.540;2022-07-24T00:20:47;15.00;;;10.57;;
30862;SDS011;17573;55.922;37.540;2022-07-24T00:23:19;22.00;;;10.30;;
30862;SDS011;17573;55.922;37.540;2022-07-24T00:26:12;20.02;;;11.98;;
30862;SDS011;17573;55.922;37.540;2022-07-24T00:28:45;14.85;;;10.52;;
30862;SDS011;17573;55.922;37.540;2022-07-24T00:31:38;28.23;;;11.38;;
30862;SDS011;17573;55.922;37.540;2022-07-24T00:34:10;19.27;;;11.10;;
30862;SDS011;17573;55.922;37.540;2022-07-24T00:37:03;17.90;;;10.80;;
30862;SDS011;17573;55.922;37.540;2022-07-24T00:39:35;19.88;;;12.27;;
30862;SDS011;17573;55.922;37.540;2022-07-24T00:42:28;22.95;;;11.60;;
30862;SDS011;17573;55.922;37.540;2022-07-24T00:45:00;25.25;;;12.13;;
30862;SDS011;17573;55.922;37.540;2022-07-24T00:47:53;27.50;;;11.18;;
30862;SDS011;17573;55.922;37.540;2022-07-24T00:50:25;30.33;;;11.65;;
30862;SDS011;17573;55.922;37.540;2022-07-24T00:53:18;26.10;;;11.65;;
30862;SDS011;17573;55.922;37.540;2022-07-24T00:55:50;17.27;;;10.52;;
30862;SDS011;17573;55.922;37.540;2022-07-24T00:58:44;16.83;;;11.43;;
30862;SDS011;17573;55.922;37.540;2022-07-24T01:01:17;14.93;;;11.43;;
30862;SDS011;17573;55.922;37.540;2022-07-24T01:04:10;17.15;;;10.75;;
30862;SDS011;17573;55.922;37.540;2022-07-24T01:06:42;18.27;;;12.18;;
30862;SDS011;17573;55.922;37.540;2022-07-24T01:09:36;30.63;;;12.57;;
30862;SDS011;17573;55.922;37.540;2022-07-24T01:12:08;24.80;;;12.77;;
30862;SDS011;17573;55.922;37.540;2022-07-24T01:15:02;26.85;;;12.48;;
30862;SDS011;17573;55.922;37.540;2022-07-24T01:17:36;28.40;;;11.35;;
30862;SDS011;17573;55.922;37.540;2022-07-24T01:20:35;19.08;;;10.60;;
30862;SDS011;17573;55.922;37.540;2022-07-24T01:23:09;19.50;;;10.73;;
30862;SDS011;17573;55.922;37.540;2022-07-24T01:26:02;22.33;;;11.13;;
30862;SDS011;17573;55.922;37.540;2022-07-24T01:28:37;16.85;;;10.82;;
30862;SDS011;17573;55.922;37.540;2022-07-24T01:31:30;22.92;;;12.38;;
30862;SDS011;17573;55.922;37.540;2022-07-24T01:34:02;18.63;;;11.10;;
30862;SDS011;17573;55.922;37.540;2022-07-24T01:36:56;33.40;;;12.07;;
30862;SDS011;17573;55.922;37.540;2022-07-24T01:39:28;29.23;;;12.73;;
30862;SDS011;17573;55.922;37.540;2022-07-24T01:42:21;20.45;;;11.90;;
30862;SDS011;17573;55.922;37.540;2022-07-24T01:44:53;18.27;;;10.63;;
30862;SDS011;17573;55.922;37.540;2022-07-24T01:47:46;21.85;;;11.52;;
30862;SDS011;17573;55.922;37.540;2022-07-24T01:50:18;27.33;;;11.88;;
30862;SDS011;17573;55.922;37.540;2022-07-24T01:53:11;31.17;;;13.13;;
30862;SDS011;17573;55.922;37.540;2022-07-24T01:55:43;25.80;;;11.68;;
30862;SDS011;17573;55.922;37.540;2022-07-24T01:58:36;35.35;;;12.00;;
30862;SDS011;17573;55.922;37.540;2022-07-24T02:01:11;26.48;;;12.20;;
30862;SDS011;17573;55.922;37.540;2022-07-24T02:04:04;33.15;;;12.82;;
30862;SDS011;17573;55.922;37.540;2022-07-24T02:06:36;40.80;;;14.18;;
30862;SDS011;17573;55.922;37.540;2022-07-24T02:09:29;34.50;;;13.70;;
30862;SDS011;17573;55.922;37.540;2022-07-24T02:12:01;30.92;;;13.30;;
30862;SDS011;17573;55.922;37.540;2022-07-24T02:14:54;24.73;;;12.77;;
30862;SDS011;17573;55.922;37.540;2022-07-24T02:17:26;22.73;;;12.25;;
30862;SDS011;17573;55.922;37.540;2022-07-24T02:20:19;35.70;;;13.70;;
30862;SDS011;17573;55.922;37.540;2022-07-24T02:22:51;23.80;;;12.93;;
30862;SDS011;17573;55.922;37.540;2022-07-24T02:25:45;39.40;;;13.93;;
30862;SDS011;17573;55.922;37.540;2022-07-24T02:28:18;28.60;;;12.57;;
30862;SDS011;17573;55.922;37.540;2022-07-24T02:31:12;23.45;;;12.82;;
30862;SDS011;17573;55.922;37.540;2022-07-24T02:33:44;18.88;;;12.30;;
30862;SDS011;17573;55.922;37.540;2022-07-24T02:36:37;22.85;;;11.98;;
30862;SDS011;17573;55.922;37.540;2022-07-24T02:39:09;15.45;;;10.90;;
30862;SDS011;17573;55.922;37.540;2022-07-24T02:42:02;19.50;;;10.77;;
30862;SDS011;17573;55.922;37.540;2022-07-24T02:44:34;22.48;;;11.88;;
30862;SDS011;17573;55.922;37.540;2022-07-24T02:47:27;22.83;;;13.32;;
30862;SDS011;17573;55.922;37.540;2022-07-24T02:49:59;26.55;;;13.32;;
30862;SDS011;17573;55.922;37.540;2022-07-24T02:52:53;31.02;;;11.73;;
30862;SDS011;17573;55.922;37.540;2022-07-24T02:55:25;22.58;;;12.88;;
30862;SDS011;17573;55.922;37.540;2022-07-24T02:58:18;34.83;;;13.02;;
30862;SDS011;17573;55.922;37.540;2022-07-24T03:00:57;35.90;;;14.25;;
30862;SDS011;17573;55.922;37.540;2022-07-24T03:03:43;18.35;;;11.13;;
30862;SDS011;17573;55.922;37.540;2022-07-24T03:06:22;17.75;;;10.68;;
30862;SDS011;17573;55.922;37.540;2022-07-24T03:09:08;19.60;;;10.05;;
30862;SDS011;17573;55.922;37.540;2022-07-24T03:11:47;15.23;;;10.05;;
30862;SDS011;17573;55.922;37.540;2022-07-24T03:14:33;13.13;;;10.15;;
30862;SDS011;17573;55.922;37.540;2022-07-24T03:17:12;18.52;;;9.52;;
30862;SDS011;17573;55.922;37.540;2022-07-24T03:19:58;18.80;;;10.88;;
30862;SDS011;17573;55.922;37.540;2022-07-24T03:22:37;17.42;;;9.77;;
30862;SDS011;17573;55.922;37.540;2022-07-24T03:25:23;15.52;;;10.02;;
30862;SDS011;17573;55.922;37.540;2022-07-24T03:28:02;24.13;;;9.98;;
30862;SDS011;17573;55.922;37.540;2022-07-24T03:30:48;19.27;;;10.63;;
30862;SDS011;17573;55.922;37.540;2022-07-24T03:33:27;15.13;;;10.25;;
30862;SDS011;17573;55.922;37.540;2022-07-24T03:36:14;31.00;;;9.75;;
30862;SDS011;17573;55.922;37.540;2022-07-24T03:38:53;21.17;;;9.75;;
30862;SDS011;17573;55.922;37.540;2022-07-24T03:41:39;16.00;;;9.63;;
30862;SDS011;17573;55.922;37.540;2022-07-24T03:44:18;15.98;;;8.80;;
30862;SDS011;17573;55.922;37.540;2022-07-24T03:47:04;17.98;;;11.80;;
30862;SDS011;17573;55.922;37.540;2022-07-24T03:49:43;14.43;;;9.20;;
30862;SDS011;17573;55.922;37.540;2022-07-24T03:52:29;20.00;;;9.23;;
30862;SDS011;17573;55.922;37.540;2022-07-24T03:55:08;11.00;;;8.98;;
30862;SDS011;17573;55.922;37.540;2022-07-24T03:57:54;19.60;;;8.90;;
30862;SDS011;17573;55.922;37.540;2022-07-24T04:00:33;22.92;;;9.05;;
30862;SDS011;17573;55.922;37.540;2022-07-24T04:03:19;15.75;;;8.82;;
30862;SDS011;17573;55.922;37.540;2022-07-24T04:06:00;15.65;;;8.48;;
30862;SDS011;17573;55.922;37.540;2022-07-24T04:08:49;14.65;;;7.43;;
30862;SDS011;17573;55.922;37.540;2022-07-24T04:11:28;14.90;;;7.18;;
30862;SDS011;17573;55.922;37.540;2022-07-24T04:14:14;16.23;;;6.90;;
30862;SDS011;17573;55.922;37.540;2022-07-24T04:16:53;16.17;;;7.40;;
30862;SDS011;17573;55.922;37.540;2022-07-24T04:19:39;16.38;;;6.72;;
30862;SDS011;17573;55.922;37.540;2022-07-24T04:22:18;11.50;;;7.05;;
30862;SDS011;17573;55.922;37.540;2022-07-24T04:25:04;16.30;;;7.72;;
30862;SDS011;17573;55.922;37.540;2022-07-24T04:27:44;12.32;;;6.25;;
30862;SDS011;17573;55.922;37.540;2022-07-24T04:30:30;14.32;;;6.20;;
30862;SDS011;17573;55.922;37.540;2022-07-24T04:33:09;13.60;;;6.80;;
30862;SDS011;17573;55.922;37.540;2022-07-24T04:35:55;15.90;;;6.68;;
30862;SDS011;17573;55.922;37.540;2022-07-24T04:38:34;14.18;;;6.63;;
30862;SDS011;17573;55.922;37.540;2022-07-24T04:41:20;12.55;;;7.30;;
30862;SDS011;17573;55.922;37.540;2022-07-24T04:43:59;12.85;;;6.28;;
30862;SDS011;17573;55.922;37.540;2022-07-24T04:46:47;12.48;;;6.55;;
30862;SDS011;17573;55.922;37.540;2022-07-24T04:49:26;22.27;;;11.13;;
30862;SDS011;17573;55.922;37.540;2022-07-24T04:52:12;20.20;;;7.05;;
30862;SDS011;17573;55.922;37.540;2022-07-24T04:54:51;11.98;;;6.43;;
30862;SDS011;17573;55.922;37.540;2022-07-24T04:57:37;14.05;;;6.45;;
30862;SDS011;17573;55.922;37.540;2022-07-24T05:00:16;7.53;;;5.38;;
30862;SDS011;17573;55.922;37.540;2022-07-24T05:03:02;13.35;;;6.07;;
30862;SDS011;17573;55.922;37.540;2022-07-24T05:05:41;9.75;;;5.82;;
30862;SDS011;17573;55.922;37.540;2022-07-24T05:08:27;13.25;;;6.80;;
30862;SDS011;17573;55.922;37.540;2022-07-24T05:11:06;22.55;;;6.55;;
30862;SDS011;17573;55.922;37.540;2022-07-24T05:13:52;7.47;;;5.15;;
30862;SDS011;17573;55.922;37.540;2022-07-24T05:16:31;11.93;;;5.10;;
30862;SDS011;17573;55.922;37.540;2022-07-24T05:19:17;7.68;;;6.38;;
30862;SDS011;17573;55.922;37.540;2022-07-24T05:21:56;12.68;;;6.00;;
30862;SDS011;17573;55.922;37.540;2022-07-24T05:24:42;6.95;;;5.07;;
30862;SDS011;17573;55.922;37.540;2022-07-24T05:27:21;11.05;;;5.63;;
30862;SDS011;17573;55.922;37.540;2022-07-24T05:30:08;11.13;;;5.93;;
30862;SDS011;17573;55.922;37.540;2022-07-24T05:32:48;6.63;;;4.93;;
30862;SDS011;17573;55.922;37.540;2022-07-24T05:35:34;9.70;;;5.28;;
30862;SDS011;17573;55.922;37.540;2022-07-24T05:38:13;7.32;;;5.00;;
30862;SDS011;17573;55.922;37.540;2022-07-24T05:40:59;12.73;;;5.00;;
30862;SDS011;17573;55.922;37.540;2022-07-24T05:43:38;13.20;;;5.57;;
30862;SDS011;17573;55.922;37.540;2022-07-24T05:46:24;18.10;;;6.03;;
30862;SDS011;17573;55.922;37.540;2022-07-24T05:49:03;15.55;;;5.45;;
30862;SDS011;17573;55.922;37.540;2022-07-24T05:51:49;8.55;;;4.85;;
30862;SDS011;17573;55.922;37.540;2022-07-24T05:54:28;11.98;;;5.15;;
30862;SDS011;17573;55.922;37.540;2022-07-24T05:57:14;7.72;;;5.07;;
30862;SDS011;17573;55.922;37.540;2022-07-24T05:59:53;10.13;;;4.60;;
30862;SDS011;17573;55.922;37.540;2022-07-24T06:02:47;8.75;;;4.93;;
30862;SDS011;17573;55.922;37.540;2022-07-24T06:05:26;12.43;;;3.70;;
30862;SDS011;17573;55.922;37.540;2022-07-24T06:08:12;9.43;;;3.65;;
30862;SDS011;17573;55.922;37.540;2022-07-24T06:10:51;4.40;;;3.47;;
30862;SDS011;17573;55.922;37.540;2022-07-24T06:13:37;4.63;;;2.70;;
30862;SDS011;17573;55.922;37.540;2022-07-24T06:16:16;7.15;;;3.55;;
30862;SDS011;17573;55.922;37.540;2022-07-24T06:19:02;3.80;;;2.83;;
30862;SDS011;17573;55.922;37.540;2022-07-24T06:21:41;3.90;;;3.42;;
30862;SDS011;17573;55.922;37.540;2022-07-24T06:24:27;10.10;;;2.92;;
30862;SDS011;17573;55.922;37.540;2022-07-24T06:27:07;2.58;;;2.38;;
30862;SDS011;17573;55.922;37.540;2022-07-24T06:29:53;6.70;;;2.88;;
30862;SDS011;17573;55.922;37.540;2022-07-24T06:32:32;5.40;;;3.63;;
30862;SDS011;17573;55.922;37.540;2022-07-24T06:35:18;9.68;;;3.28;;
30862;SDS011;17573;55.922;37.540;2022-07-24T06:37:57;6.43;;;2.90;;
30862;SDS011;17573;55.922;37.540;2022-07-24T06:40:43;3.10;;;2.80;;
30862;SDS011;17573;55.922;37.540;2022-07-24T06:43:22;9.93;;;3.53;;
30862;SDS011;17573;55.922;37.540;2022-07-24T06:46:08;11.32;;;3.10;;
30862;SDS011;17573;55.922;37.540;2022-07-24T06:48:47;1.83;;;1.50;;
30862;SDS011;17573;55.922;37.540;2022-07-24T06:51:33;5.85;;;1.77;;
30862;SDS011;17573;55.922;37.540;2022-07-24T06:54:12;2.50;;;1.58;;
30862;SDS011;17573;55.922;37.540;2022-07-24T06:56:58;10.32;;;2.33;;
30862;SDS011;17573;55.922;37.540;2022-07-24T06:59:37;7.70;;;2.35;;
30862;SDS011;17573;55.922;37.540;2022-07-24T07:02:23;6.65;;;2.42;;
30862;SDS011;17573;55.922;37.540;2022-07-24T07:05:03;4.43;;;2.33;;
30862;SDS011;17573;55.922;37.540;2022-07-24T07:07:50;23.35;;;4.45;;
30862;SDS011;17573;55.922;37.540;2022-07-24T07:10:29;8.40;;;2.67;;
30862;SDS011;17573;55.922;37.540;2022-07-24T07:13:15;4.78;;;2.17;;
30862;SDS011;17573;55.922;37.540;2022-07-24T07:15:54;4.03;;;2.42;;
30862;SDS011;17573;55.922;37.540;2022-07-24T07:18:40;4.35;;;2.60;;
30862;SDS011;17573;55.922;37.540;2022-07-24T07:21:20;4.50;;;2.30;;
30862;SDS011;17573;55.922;37.540;2022-07-24T07:24:06;4.55;;;2.03;;
30862;SDS011;17573;55.922;37.540;2022-07-24T07:26:45;3.38;;;2.70;;
30862;SDS011;17573;55.922;37.540;2022-07-24T07:29:31;2.72;;;2.42;;
30862;SDS011;17573;55.922;37.540;2022-07-24T07:32:10;2.97;;;2.38;;
30862;SDS011;17573;55.922;37.540;2022-07-24T07:34:56;8.02;;;2.28;;
30862;SDS011;17573;55.922;37.540;2022-07-24T07:37:35;4.28;;;2.70;;
30862;SDS011;17573;55.922;37.540;2022-07-24T07:40:21;2.60;;;2.40;;
30862;SDS011;17573;55.922;37.540;2022-07-24T07:43:00;8.18;;;2.25;;
30862;SDS011;17573;55.922;37.540;2022-07-24T07:45:46;8.40;;;2.67;;
30862;SDS011;17573;55.922;37.540;2022-07-24T07:48:25;4.28;;;2.63;;
30862;SDS011;17573;55.922;37.540;2022-07-24T07:51:11;7.00;;;2.63;;
30862;SDS011;17573;55.922;37.540;2022-07-24T07:53:50;3.08;;;2.58;;
30862;SDS011;17573;55.922;37.540;2022-07-24T07:56:36;15.13;;;2.60;;
30862;SDS011;17573;55.922;37.540;2022-07-24T07:59:15;4.30;;;2.80;;
30862;SDS011;17573;55.922;37.540;2022-07-24T08:02:01;3.35;;;2.42;;
30862;SDS011;17573;55.922;37.540;2022-07-24T08:04:40;2.53;;;2.25;;
30862;SDS011;17573;55.922;37.540;2022-07-24T08:07:26;2.35;;;1.90;;
30862;SDS011;17573;55.922;37.540;2022-07-24T08:10:05;3.25;;;2.25;;
30862;SDS011;17573;55.922;37.540;2022-07-24T08:12:52;8.82;;;2.20;;
30862;SDS011;17573;55.922;37.540;2022-07-24T08:15:31;9.25;;;2.80;;
30862;SDS011;17573;55.922;37.540;2022-07-24T08:18:17;10.80;;;2.75;;
30862;SDS011;17573;55.922;37.540;2022-07-24T08:20:56;7.72;;;2.95;;
30862;SDS011;17573;55.922;37.540;2022-07-24T08:23:42;10.25;;;2.65;;
30862;SDS011;17573;55.922;37.540;2022-07-24T08:26:21;11.68;;;2.28;;
30862;SDS011;17573;55.922;37.540;2022-07-24T08:29:09;10.95;;;3.22;;
30862;SDS011;17573;55.922;37.540;2022-07-24T08:31:49;16.00;;;3.00;;
30862;SDS011;17573;55.922;37.540;2022-07-24T08:34:35;16.63;;;4.03;;
30862;SDS011;17573;55.922;37.540;2022-07-24T08:37:14;8.77;;;2.88;;
30862;SDS011;17573;55.922;37.540;2022-07-24T08:40:00;3.97;;;2.72;;
30862;SDS011;17573;55.922;37.540;2022-07-24T08:42:39;11.30;;;2.67;;
30862;SDS011;17573;55.922;37.540;2022-07-24T08:45:26;11.75;;;2.92;;
30862;SDS011;17573;55.922;37.540;2022-07-24T08:48:07;11.10;;;2.20;;
30862;SDS011;17573;55.922;37.540;2022-07-24T08:50:54;3.97;;;2.13;;
30862;SDS011;17573;55.922;37.540;2022-07-24T08:53:34;4.70;;;2.30;;
30862;SDS011;17573;55.922;37.540;2022-07-24T08:56:20;10.73;;;2.72;;
30862;SDS011;17573;55.922;37.540;2022-07-24T08:58:59;24.70;;;3.47;;
30862;SDS011;17573;55.922;37.540;2022-07-24T09:01:47;5.53;;;2.28;;
30862;SDS011;17573;55.922;37.540;2022-07-24T09:04:36;5.72;;;2.47;;
30862;SDS011;17573;55.922;37.540;2022-07-24T09:07:30;16.58;;;2.72;;
30862;SDS011;17573;55.922;37.540;2022-07-24T09:10:14;5.38;;;2.42;;
30862;SDS011;17573;55.922;37.540;2022-07-24T09:13:13;13.55;;;2.35;;
30862;SDS011;17573;55.922;37.540;2022-07-24T09:15:47;5.70;;;2.30;;
30862;SDS011;17573;55.922;37.540;2022-07-24T09:18:40;4.18;;;2.20;;
30862;SDS011;17573;55.922;37.540;2022-07-24T09:21:13;9.85;;;2.33;;
30862;SDS011;17573;55.922;37.540;2022-07-24T09:24:14;5.03;;;2.25;;
30862;SDS011;17573;55.922;37.540;2022-07-24T09:29:47;4.13;;;2.45;;
30862;SDS011;17573;55.922;37.540;2022-07-24T09:32:21;12.35;;;2.50;;
30862;SDS011;17573;55.922;37.540;2022-07-24T09:35:15;8.73;;;2.13;;
30862;SDS011;17573;55.922;37.540;2022-07-24T09:37:54;7.03;;;2.30;;
30862;SDS011;17573;55.922;37.540;2022-07-24T09:40:52;9.63;;;2.55;;
30862;SDS011;17573;55.922;37.540;2022-07-24T09:43:27;4.68;;;2.65;;
30862;SDS011;17573;55.922;37.540;2022-07-24T09:46:22;7.68;;;2.33;;
30862;SDS011;17573;55.922;37.540;2022-07-24T09:48:56;3.30;;;2.53;;
30862;SDS011;17573;55.922;37.540;2022-07-24T09:54:46;6.93;;;2.13;;
30862;SDS011;17573;55.922;37.540;2022-07-24T09:57:40;4.00;;;2.33;;
30862;SDS011;17573;55.922;37.540;2022-07-24T10:00:13;4.07;;;1.98;;
30862;SDS011;17573;55.922;37.540;2022-07-24T10:03:06;9.98;;;3.55;;
30862;SDS011;17573;55.922;37.540;2022-07-24T10:05:41;4.28;;;2.33;;
30862;SDS011;17573;55.922;37.540;2022-07-24T10:08:35;4.47;;;2.33;;
30862;SDS011;17573;55.922;37.540;2022-07-24T10:11:10;11.35;;;2.67;;
30862;SDS011;17573;55.922;37.540;2022-07-24T10:14:03;9.25;;;2.30;;
30862;SDS011;17573;55.922;37.540;2022-07-24T10:16:36;8.73;;;2.42;;
30862;SDS011;17573;55.922;37.540;2022-07-24T10:19:44;2.83;;;2.30;;
30862;SDS011;17573;55.922;37.540;2022-07-24T10:22:22;20.70;;;4.70;;
30862;SDS011;17573;55.922;37.540;2022-07-24T10:25:15;10.32;;;2.30;;
30862;SDS011;17573;55.922;37.540;2022-07-24T10:27:51;7.07;;;1.80;;
30862;SDS011;17573;55.922;37.540;2022-07-24T10:30:47;12.30;;;3.92;;
30862;SDS011;17573;55.922;37.540;2022-07-24T10:33:19;6.18;;;2.20;;
30862;SDS011;17573;55.922;37.540;2022-07-24T10:36:31;28.65;;;4.22;;
30862;SDS011;17573;55.922;37.540;2022-07-24T10:39:15;3.10;;;1.95;;
30862;SDS011;17573;55.922;37.540;2022-07-24T10:42:11;5.05;;;1.83;;
30862;SDS011;17573;55.922;37.540;2022-07-24T10:44:43;5.03;;;1.88;;
30862;SDS011;17573;55.922;37.540;2022-07-24T10:47:36;8.52;;;2.90;;
30862;SDS011;17573;55.922;37.540;2022-07-24T10:50:08;3.80;;;2.40;;
30862;SDS011;17573;55.922;37.540;2022-07-24T10:53:21;6.03;;;2.25;;
30862;SDS011;17573;55.922;37.540;2022-07-24T10:56:13;11.00;;;2.75;;
30862;SDS011;17573;55.922;37.540;2022-07-24T10:59:31;5.43;;;2.28;;
30862;SDS011;17573;55.922;37.540;2022-07-24T11:02:25;5.95;;;2.30;;
30862;SDS011;17573;55.922;37.540;2022-07-24T11:05:26;4.25;;;2.05;;
30862;SDS011;17573;55.922;37.540;2022-07-24T11:11:08;10.27;;;2.45;;
30862;SDS011;17573;55.922;37.540;2022-07-24T11:13:43;5.80;;;2.63;;
30862;SDS011;17573;55.922;37.540;2022-07-24T11:16:37;4.63;;;2.22;;
30862;SDS011;17573;55.922;37.540;2022-07-24T11:22:03;4.88;;;2.25;;
30862;SDS011;17573;55.922;37.540;2022-07-24T11:24:35;6.95;;;2.40;;
30862;SDS011;17573;55.922;37.540;2022-07-24T11:27:28;3.67;;;2.08;;
30862;SDS011;17573;55.922;37.540;2022-07-24T11:30:12;3.83;;;2.00;;
30862;SDS011;17573;55.922;37.540;2022-07-24T11:33:06;5.03;;;1.92;;
30862;SDS011;17573;55.922;37.540;2022-07-24T11:35:38;2.53;;;1.98;;
30862;SDS011;17573;55.922;37.540;2022-07-24T11:38:31;2.28;;;1.90;;
30862;SDS011;17573;55.922;37.540;2022-07-24T11:41:04;8.13;;;2.60;;
30862;SDS011;17573;55.922;37.540;2022-07-24T11:43:58;8.32;;;2.33;;
30862;SDS011;17573;55.922;37.540;2022-07-24T11:46:38;2.95;;;1.55;;
30862;SDS011;17573;55.922;37.540;2022-07-24T11:49:35;4.35;;;2.10;;
30862;SDS011;17573;55.922;37.540;2022-07-24T11:52:19;6.95;;;2.47;;
30862;SDS011;17573;55.922;37.540;2022-07-24T11:55:19;10.65;;;3.10;;
30862;SDS011;17573;55.922;37.540;2022-07-24T11:57:54;8.07;;;2.35;;
30862;SDS011;17573;55.922;37.540;2022-07-24T12:00:48;8.77;;;2.58;;
30862;SDS011;17573;55.922;37.540;2022-07-24T12:03:20;6.55;;;2.70;;
30862;SDS011;17573;55.922;37.540;2022-07-24T12:06:17;4.38;;;2.50;;
30862;SDS011;17573;55.922;37.540;2022-07-24T12:08:50;11.68;;;2.88;;
30862;SDS011;17573;55.922;37.540;2022-07-24T12:11:43;6.60;;;2.50;;
30862;SDS011;17573;55.922;37.540;2022-07-24T12:14:16;10.23;;;2.75;;
30862;SDS011;17573;55.922;37.540;2022-07-24T12:17:10;9.82;;;2.33;;
30862;SDS011;17573;55.922;37.540;2022-07-24T12:19:51;16.95;;;3.03;;
30862;SDS011;17573;55.922;37.540;2022-07-24T12:22:44;7.88;;;2.53;;
30862;SDS011;17573;55.922;37.540;2022-07-24T12:25:16;10.75;;;2.17;;
30862;SDS011;17573;55.922;37.540;2022-07-24T12:30:45;5.32;;;2.42;;
30862;SDS011;17573;55.922;37.540;2022-07-24T12:33:41;7.57;;;2.28;;
30862;SDS011;17573;55.922;37.540;2022-07-24T12:36:25;2.55;;;2.22;;
30862;SDS011;17573;55.922;37.540;2022-07-24T12:39:18;11.50;;;2.40;;
30862;SDS011;17573;55.922;37.540;2022-07-24T12:41:50;3.63;;;2.22;;
30862;SDS011;17573;55.922;37.540;2022-07-24T12:44:45;2.83;;;1.83;;
30862;SDS011;17573;55.922;37.540;2022-07-24T12:47:17;4.72;;;2.10;;
30862;SDS011;17573;55.922;37.540;2022-07-24T12:50:13;5.97;;;2.40;;
30862;SDS011;17573;55.922;37.540;2022-07-24T12:52:49;5.63;;;2.03;;
30862;SDS011;17573;55.922;37.540;2022-07-24T12:55:42;2.63;;;1.90;;
30862;SDS011;17573;55.922;37.540;2022-07-24T12:58:14;3.42;;;2.53;;
30862;SDS011;17573;55.922;37.540;2022-07-24T13:01:07;18.38;;;2.35;;
30862;SDS011;17573;55.922;37.540;2022-07-24T13:03:39;4.90;;;2.58;;
30862;SDS011;17573;55.922;37.540;2022-07-24T13:06:33;4.55;;;2.20;;
30862;SDS011;17573;55.922;37.540;2022-07-24T13:09:07;7.40;;;2.15;;
30862;SDS011;17573;55.922;37.540;2022-07-24T13:12:01;20.17;;;3.28;;
30862;SDS011;17573;55.922;37.540;2022-07-24T13:14:33;2.72;;;2.15;;
30862;SDS011;17573;55.922;37.540;2022-07-24T13:17:26;20.13;;;4.45;;
30862;SDS011;17573;55.922;37.540;2022-07-24T13:19:58;7.50;;;2.92;;
30862;SDS011;17573;55.922;37.540;2022-07-24T13:22:52;14.95;;;2.90;;
30862;SDS011;17573;55.922;37.540;2022-07-24T13:25:24;5.78;;;2.00;;
30862;SDS011;17573;55.922;37.540;2022-07-24T13:28:17;24.02;;;3.80;;
30862;SDS011;17573;55.922;37.540;2022-07-24T13:30:49;19.27;;;4.32;;
30862;SDS011;17573;55.922;37.540;2022-07-24T13:33:42;7.90;;;2.33;;
30862;SDS011;17573;55.922;37.540;2022-07-24T13:36:15;3.92;;;2.20;;
30862;SDS011;17573;55.922;37.540;2022-07-24T13:39:08;8.68;;;2.10;;
30862;SDS011;17573;55.922;37.540;2022-07-24T13:41:42;8.77;;;2.35;;
30862;SDS011;17573;55.922;37.540;2022-07-24T13:44:35;5.55;;;2.10;;
30862;SDS011;17573;55.922;37.540;2022-07-24T13:47:07;5.88;;;2.17;;
30862;SDS011;17573;55.922;37.540;2022-07-24T13:50:00;19.45;;;3.20;;
30862;SDS011;17573;55.922;37.540;2022-07-24T13:52:32;9.48;;;2.70;;
30862;SDS011;17573;55.922;37.540;2022-07-24T13:55:25;3.17;;;2.50;;
30862;SDS011;17573;55.922;37.540;2022-07-24T13:57:58;4.25;;;2.28;;
30862;SDS011;17573;55.922;37.540;2022-07-24T14:00:50;5.60;;;2.53;;
30862;SDS011;17573;55.922;37.540;2022-07-24T14:03:22;5.40;;;2.50;;
30862;SDS011;17573;55.922;37.540;2022-07-24T14:06:15;6.78;;;2.38;;
30862;SDS011;17573;55.922;37.540;2022-07-24T14:08:47;6.75;;;1.92;;
30862;SDS011;17573;55.922;37.540;2022-07-24T14:11:40;12.68;;;3.72;;
30862;SDS011;17573;55.922;37.540;2022-07-24T14:14:12;5.13;;;2.75;;
30862;SDS011;17573;55.922;37.540;2022-07-24T14:17:05;3.28;;;2.10;;
30862;SDS011;17573;55.922;37.540;2022-07-24T14:19:38;3.17;;;2.13;;
30862;SDS011;17573;55.922;37.540;2022-07-24T14:22:31;5.65;;;2.40;;
30862;SDS011;17573;55.922;37.540;2022-07-24T14:25:04;12.45;;;2.45;;
30862;SDS011;17573;55.922;37.540;2022-07-24T14:27:57;3.58;;;2.67;;
30862;SDS011;17573;55.922;37.540;2022-07-24T14:30:30;15.02;;;2.90;;
30862;SDS011;17573;55.922;37.540;2022-07-24T14:33:23;12.93;;;2.63;;
30862;SDS011;17573;55.922;37.540;2022-07-24T14:35:55;5.20;;;2.60;;
30862;SDS011;17573;55.922;37.540;2022-07-24T14:38:48;6.90;;;2.40;;
30862;SDS011;17573;55.922;37.540;2022-07-24T14:41:20;5.93;;;2.30;;
30862;SDS011;17573;55.922;37.540;2022-07-24T14:44:13;5.88;;;2.67;;
30862;SDS011;17573;55.922;37.540;2022-07-24T14:46:45;6.90;;;2.63;;
30862;SDS011;17573;55.922;37.540;2022-07-24T14:49:38;7.20;;;2.40;;
30862;SDS011;17573;55.922;37.540;2022-07-24T14:52:10;10.05;;;3.20;;
30862;SDS011;17573;55.922;37.540;2022-07-24T14:55:04;5.05;;;3.10;;
30862;SDS011;17573;55.922;37.540;2022-07-24T14:57:37;2.78;;;2.20;;
30862;SDS011;17573;55.922;37.540;2022-07-24T15:00:30;7.40;;;2.88;;
30862;SDS011;17573;55.922;37.540;2022-07-24T15:03:02;8.75;;;3.08;;
30862;SDS011;17573;55.922;37.540;2022-07-24T15:05:55;8.15;;;3.03;;
30862;SDS011;17573;55.922;37.540;2022-07-24T15:08:27;9.65;;;2.70;;
30862;SDS011;17573;55.922;37.540;2022-07-24T15:11:20;6.18;;;2.92;;
30862;SDS011;17573;55.922;37.540;2022-07-24T15:13:56;12.98;;;2.70;;
30862;SDS011;17573;55.922;37.540;2022-07-24T15:16:49;5.10;;;2.50;;
30862;SDS011;17573;55.922;37.540;2022-07-24T15:19:21;2.72;;;2.40;;
30862;SDS011;17573;55.922;37.540;2022-07-24T15:22:14;6.07;;;3.00;;
30862;SDS011;17573;55.922;37.540;2022-07-24T15:24:46;15.20;;;2.70;;
30862;SDS011;17573;55.922;37.540;2022-07-24T15:27:39;4.93;;;3.03;;
30862;SDS011;17573;55.922;37.540;2022-07-24T15:30:13;9.57;;;3.10;;
30862;SDS011;17573;55.922;37.540;2022-07-24T15:33:09;6.95;;;2.67;;
30862;SDS011;17573;55.922;37.540;2022-07-24T15:35:41;6.78;;;2.75;;
30862;SDS011;17573;55.922;37.540;2022-07-24T15:38:34;6.75;;;2.75;;
30862;SDS011;17573;55.922;37.540;2022-07-24T15:41:07;5.25;;;2.35;;
30862;SDS011;17573;55.922;37.540;2022-07-24T15:44:00;7.95;;;2.60;;
30862;SDS011;17573;55.922;37.540;2022-07-24T15:46:33;5.13;;;2.80;;
30862;SDS011;17573;55.922;37.540;2022-07-24T15:49:26;4.65;;;2.70;;
30862;SDS011;17573;55.922;37.540;2022-07-24T15:51:58;3.88;;;2.28;;
30862;SDS011;17573;55.922;37.540;2022-07-24T15:54:51;9.07;;;2.90;;
30862;SDS011;17573;55.922;37.540;2022-07-24T15:57:23;10.25;;;2.65;;
30862;SDS011;17573;55.922;37.540;2022-07-24T16:00:16;4.07;;;2.60;;
30862;SDS011;17573;55.922;37.540;2022-07-24T16:02:49;4.70;;;2.90;;
30862;SDS011;17573;55.922;37.540;2022-07-24T16:05:41;6.57;;;3.17;;
30862;SDS011;17573;55.922;37.540;2022-07-24T16:08:13;5.55;;;2.92;;
30862;SDS011;17573;55.922;37.540;2022-07-24T16:11:06;6.32;;;2.25;;
30862;SDS011;17573;55.922;37.540;2022-07-24T16:13:38;6.00;;;2.05;;
30862;SDS011;17573;55.922;37.540;2022-07-24T16:16:31;5.03;;;2.75;;